createdAt,value
2018-01-17T00:00:43.859Z,0.00
2018-01-17T00:02:43.818Z,0.00
2018-01-17T00:03:43.818Z,0.00
2018-01-17T00:04:43.820Z,0.00
2018-01-17T00:05:43.827Z,0.00
2018-01-17T00:06:43.842Z,0.00
2018-01-17T00:07:43.834Z,0.00
2018-01-17T00:08:43.834Z,0.00
2018-01-17T00:09:43.844Z,0.00
2018-01-17T00:10:43.847Z,0.00
2018-01-17T00:11:43.855Z,0.00
2018-01-17T00:12:43.854Z,0.00
2018-01-17T00:13:43.858Z,0.00
2018-01-17T00:14:43.866Z,0.00
2018-01-17T00:15:43.872Z,0.00
2018-01-17T00:16:43.871Z,0.00
2018-01-17T00:17:43.872Z,0.00
2018-01-17T00:18:43.886Z,0.00
2018-01-17T00:19:44.478Z,0.00
2018-01-17T00:20:43.890Z,0.00
2018-01-17T00:21:43.894Z,0.00
2018-01-17T00:22:43.897Z,0.00
2018-01-17T00:23:43.894Z,0.00
2018-01-17T00:24:43.898Z,0.00
2018-01-17T00:27:09.391Z,0.00
2018-01-17T00:31:47.618Z,0.00
2018-01-17T00:32:47.620Z,0.00
2018-01-17T00:33:47.625Z,0.00
2018-01-17T00:34:47.627Z,0.00
2018-01-17T00:35:47.636Z,0.00
2018-01-17T00:36:47.648Z,0.00
2018-01-17T00:37:47.640Z,0.00
2018-01-17T00:38:47.821Z,0.00
2018-01-17T00:39:47.650Z,0.00
2018-01-17T00:40:47.650Z,0.00
2018-01-17T00:41:47.666Z,0.00
2018-01-17T00:42:47.665Z,0.00
2018-01-17T00:43:48.479Z,0.00
2018-01-17T00:44:47.671Z,0.00
2018-01-17T00:45:47.672Z,0.00
2018-01-17T00:46:47.680Z,0.00
2018-01-17T00:47:47.680Z,0.00
2018-01-17T00:48:47.690Z,0.00
2018-01-17T00:49:47.695Z,0.00
2018-01-17T00:50:47.695Z,0.00
2018-01-17T00:51:47.704Z,0.00
2018-01-17T00:52:47.707Z,0.00
2018-01-17T00:53:47.701Z,0.00
2018-01-17T00:54:47.712Z,0.00
2018-01-17T00:55:47.756Z,0.00
2018-01-17T00:56:47.712Z,0.00
2018-01-17T00:57:47.723Z,0.00
2018-01-17T00:58:47.724Z,0.00
2018-01-17T00:59:47.726Z,0.00
2018-01-17T01:00:47.736Z,0.00
2018-01-17T01:01:47.746Z,0.00
2018-01-17T01:02:47.742Z,0.00
2018-01-17T01:03:47.749Z,0.00
2018-01-17T01:04:47.750Z,0.00
2018-01-17T01:05:47.753Z,0.00
2018-01-17T01:06:48.489Z,0.00
2018-01-17T01:07:47.763Z,0.00
2018-01-17T01:08:47.766Z,0.00
2018-01-17T01:09:47.776Z,0.00
2018-01-17T01:10:47.775Z,0.00
2018-01-17T01:11:47.776Z,0.00
2018-01-17T01:12:47.816Z,0.00
2018-01-17T01:13:47.787Z,0.00
2018-01-17T01:14:47.795Z,0.00
2018-01-17T01:15:47.797Z,0.00
2018-01-17T01:16:47.802Z,0.00
2018-01-17T01:17:47.808Z,0.00
2018-01-17T01:18:47.808Z,0.00
2018-01-17T01:19:47.863Z,0.00
2018-01-17T01:20:47.817Z,0.00
2018-01-17T01:21:47.826Z,0.00
2018-01-17T01:22:47.827Z,0.00
2018-01-17T01:23:47.833Z,0.00
2018-01-17T01:24:47.833Z,0.00
2018-01-17T01:25:47.842Z,0.00
2018-01-17T01:26:47.843Z,0.00
2018-01-17T01:27:47.848Z,0.00
2018-01-17T01:28:47.855Z,0.00
2018-01-17T01:29:47.861Z,0.00
2018-01-17T01:30:47.859Z,0.00
2018-01-17T01:31:47.867Z,0.00
2018-01-17T01:32:47.869Z,0.00
2018-01-17T01:33:47.866Z,0.00
2018-01-17T01:34:47.878Z,0.00
2018-01-17T01:35:47.884Z,0.00
2018-01-17T01:36:47.885Z,0.00
2018-01-17T01:37:47.898Z,0.00
2018-01-17T01:38:47.896Z,0.00
2018-01-17T01:39:47.903Z,0.00
2018-01-17T01:40:47.917Z,0.00
2018-01-17T01:41:47.912Z,0.00
2018-01-17T01:42:47.920Z,0.00
2018-01-17T01:43:47.916Z,0.00
2018-01-17T01:44:47.928Z,0.00
2018-01-17T01:45:47.926Z,0.00
2018-01-17T01:46:47.932Z,0.00
2018-01-17T01:47:47.948Z,0.00
2018-01-17T01:48:47.942Z,0.00
2018-01-17T01:49:47.948Z,0.00
2018-01-17T01:50:47.948Z,0.00
2018-01-17T01:51:47.954Z,0.00
2018-01-17T01:52:47.969Z,0.00
2018-01-17T01:53:47.964Z,0.00
2018-01-17T01:54:47.973Z,0.00
2018-01-17T01:55:47.976Z,0.00
2018-01-17T01:56:47.990Z,0.00
2018-01-17T01:57:47.988Z,0.00
2018-01-17T01:58:47.995Z,0.00
2018-01-17T01:59:47.993Z,0.00
2018-01-17T02:00:48.005Z,0.00
2018-01-17T02:01:48.006Z,0.00
2018-01-17T02:02:48.015Z,0.00
2018-01-17T02:04:48.019Z,0.00
2018-01-17T02:05:48.056Z,0.00
2018-01-17T02:06:48.025Z,0.00
2018-01-17T02:07:48.028Z,0.00
2018-01-17T02:08:48.037Z,0.00
2018-01-17T02:09:48.041Z,0.00
2018-01-17T02:10:48.040Z,0.00
2018-01-17T02:11:48.048Z,0.00
2018-01-17T02:12:48.056Z,0.00
2018-01-17T02:13:48.056Z,0.00
2018-01-17T02:14:48.069Z,0.00
2018-01-17T02:15:48.202Z,0.00
2018-01-17T02:16:48.070Z,0.00
2018-01-17T02:17:48.077Z,0.00
2018-01-17T02:18:48.083Z,0.00
2018-01-17T02:19:48.086Z,0.00
2018-01-17T02:20:48.086Z,0.00
2018-01-17T02:21:48.097Z,0.00
2018-01-17T02:22:48.097Z,0.00
2018-01-17T02:23:48.108Z,0.00
2018-01-17T02:24:48.111Z,0.00
2018-01-17T02:25:48.115Z,0.00
2018-01-17T02:26:48.112Z,0.00
2018-01-17T02:27:48.121Z,0.00
2018-01-17T02:28:48.185Z,0.00
2018-01-17T02:29:48.166Z,0.00
2018-01-17T02:30:48.136Z,0.00
2018-01-17T02:31:48.137Z,0.00
2018-01-17T02:32:48.154Z,0.00
2018-01-17T02:33:48.149Z,0.00
2018-01-17T02:34:48.153Z,0.00
2018-01-17T02:35:48.164Z,0.00
2018-01-17T02:36:48.164Z,0.00
2018-01-17T02:37:48.169Z,0.00
2018-01-17T02:38:48.170Z,0.00
2018-01-17T02:39:48.179Z,0.00
2018-01-17T02:40:48.179Z,0.00
2018-01-17T02:41:48.982Z,0.00
2018-01-17T02:42:48.191Z,0.00
2018-01-17T02:43:48.193Z,0.00
2018-01-17T02:44:48.201Z,0.00
2018-01-17T02:45:48.198Z,0.00
2018-01-17T02:46:48.206Z,0.00
2018-01-17T02:47:48.211Z,0.00
2018-01-17T02:48:48.212Z,0.00
2018-01-17T02:49:48.220Z,0.00
2018-01-17T02:50:48.225Z,0.00
2018-01-17T02:51:48.982Z,0.00
2018-01-17T02:52:48.226Z,0.00
2018-01-17T02:53:48.237Z,0.00
2018-01-17T02:54:48.240Z,0.00
2018-01-17T02:55:48.250Z,0.00
2018-01-17T02:56:48.252Z,0.00
2018-01-17T02:57:48.250Z,0.00
2018-01-17T02:58:48.247Z,0.00
2018-01-17T02:59:48.253Z,0.00
2018-01-17T03:00:48.259Z,0.00
2018-01-17T03:01:48.262Z,0.00
2018-01-17T03:02:48.272Z,0.00
2018-01-17T03:03:48.273Z,0.00
2018-01-17T03:04:48.278Z,0.00
2018-01-17T03:05:48.271Z,0.00
2018-01-17T03:06:48.282Z,0.00
2018-01-17T03:07:48.292Z,0.00
2018-01-17T03:08:48.295Z,0.00
2018-01-17T03:09:48.983Z,0.00
2018-01-17T03:10:48.300Z,0.00
2018-01-17T03:11:48.304Z,0.00
2018-01-17T03:12:48.304Z,0.00
2018-01-17T03:13:48.313Z,0.00
2018-01-17T03:14:48.317Z,0.00
2018-01-17T03:15:48.319Z,0.00
2018-01-17T03:16:48.334Z,0.00
2018-01-17T03:17:48.329Z,0.00
2018-01-17T03:18:48.332Z,0.00
2018-01-17T03:19:48.337Z,0.00
2018-01-17T03:20:48.341Z,0.00
2018-01-17T03:21:48.355Z,0.00
2018-01-17T03:22:48.983Z,0.00
2018-01-17T03:23:48.350Z,0.00
2018-01-17T03:24:48.360Z,0.00
2018-01-17T03:25:48.359Z,0.00
2018-01-17T03:26:48.370Z,0.00
2018-01-17T03:27:48.366Z,0.00
2018-01-17T03:28:48.374Z,0.00
2018-01-17T03:29:48.379Z,0.00
2018-01-17T03:30:48.380Z,0.00
2018-01-17T03:31:48.384Z,0.00
2018-01-17T03:32:48.387Z,0.00
2018-01-17T03:33:48.386Z,0.00
2018-01-17T03:34:48.396Z,0.00
2018-01-17T03:35:48.395Z,0.00
2018-01-17T03:36:48.401Z,0.00
2018-01-17T03:37:48.403Z,0.00
2018-01-17T03:38:48.411Z,0.00
2018-01-17T03:39:48.406Z,0.00
2018-01-17T03:40:48.416Z,0.00
2018-01-17T03:41:48.428Z,0.00
2018-01-17T03:42:48.424Z,0.00
2018-01-17T03:43:48.429Z,0.00
2018-01-17T03:44:48.431Z,0.00
2018-01-17T03:45:48.516Z,0.00
2018-01-17T03:46:48.430Z,0.00
2018-01-17T03:47:48.457Z,0.00
2018-01-17T03:48:48.448Z,0.00
2018-01-17T03:49:48.449Z,0.00
2018-01-17T03:50:48.514Z,0.00
2018-01-17T03:51:48.455Z,0.00
2018-01-17T03:52:48.466Z,0.00
2018-01-17T03:53:48.467Z,0.00
2018-01-17T03:54:48.471Z,0.00
2018-01-17T03:55:48.478Z,0.00
2018-01-17T03:56:48.482Z,0.00
2018-01-17T03:57:48.483Z,0.00
2018-01-17T03:58:48.487Z,0.00
2018-01-17T04:00:48.494Z,0.00
2018-01-17T04:01:48.497Z,0.00
2018-01-17T04:03:48.573Z,0.00
2018-01-17T04:04:48.516Z,0.00
2018-01-17T04:05:48.515Z,0.00
2018-01-17T04:06:48.515Z,0.00
2018-01-17T04:07:48.520Z,0.00
2018-01-17T04:08:48.523Z,0.00
2018-01-17T04:09:48.524Z,0.00
2018-01-17T04:10:48.531Z,0.00
2018-01-17T04:11:48.535Z,0.00
2018-01-17T04:12:48.534Z,0.00
2018-01-17T04:13:48.545Z,0.00
2018-01-17T04:14:48.539Z,0.00
2018-01-17T04:15:48.539Z,0.00
2018-01-17T04:16:48.565Z,0.00
2018-01-17T04:17:48.568Z,0.00
2018-01-17T04:18:48.564Z,0.00
2018-01-17T04:19:48.564Z,0.00
2018-01-17T04:20:48.572Z,0.00
2018-01-17T04:21:48.581Z,0.00
2018-01-17T04:22:48.572Z,0.00
2018-01-17T04:23:48.583Z,0.00
2018-01-17T04:24:48.580Z,0.00
2018-01-17T04:25:48.594Z,0.00
2018-01-17T04:26:48.702Z,0.00
2018-01-17T04:27:48.599Z,0.00
2018-01-17T04:28:48.599Z,0.00
2018-01-17T04:29:48.607Z,0.00
2018-01-17T04:30:48.608Z,0.00
2018-01-17T04:31:48.610Z,0.00
2018-01-17T04:32:48.621Z,0.00
2018-01-17T04:33:48.619Z,0.00
2018-01-17T04:34:48.631Z,0.00
2018-01-17T04:35:48.627Z,0.00
2018-01-17T04:37:48.637Z,0.00
2018-01-17T04:38:48.640Z,0.00
2018-01-17T04:39:48.642Z,0.00
2018-01-17T04:40:48.645Z,0.00
2018-01-17T04:41:48.650Z,0.00
2018-01-17T04:42:48.655Z,0.00
2018-01-17T04:43:48.659Z,0.00
2018-01-17T04:44:48.717Z,0.00
2018-01-17T04:45:48.675Z,0.00
2018-01-17T04:46:48.676Z,0.00
2018-01-17T04:47:48.677Z,0.00
2018-01-17T04:48:48.677Z,0.00
2018-01-17T04:49:48.681Z,0.00
2018-01-17T04:50:48.684Z,0.00
2018-01-17T04:51:48.692Z,0.00
2018-01-17T04:52:48.690Z,0.00
2018-01-17T04:53:48.697Z,0.00
2018-01-17T04:54:48.695Z,0.00
2018-01-17T04:55:48.703Z,0.00
2018-01-17T04:56:48.706Z,0.00
2018-01-17T04:57:48.714Z,0.00
2018-01-17T04:58:48.712Z,0.00
2018-01-17T04:59:48.717Z,0.00
2018-01-17T05:00:48.724Z,0.00
2018-01-17T05:01:48.725Z,0.00
2018-01-17T05:02:48.732Z,0.00
2018-01-17T05:03:48.737Z,0.00
2018-01-17T05:04:48.733Z,0.00
2018-01-17T05:05:48.743Z,0.00
2018-01-17T05:06:48.743Z,0.00
2018-01-17T05:07:48.871Z,0.00
2018-01-17T05:08:48.753Z,0.00
2018-01-17T05:09:48.757Z,0.00
2018-01-17T05:10:48.760Z,0.00
2018-01-17T05:11:48.763Z,0.00
2018-01-17T05:12:48.765Z,0.00
2018-01-17T05:13:48.769Z,0.00
2018-01-17T05:14:48.768Z,0.00
2018-01-17T05:15:48.785Z,0.00
2018-01-17T05:16:48.782Z,0.00
2018-01-17T05:17:48.791Z,0.00
2018-01-17T05:18:48.781Z,0.00
2018-01-17T05:19:48.794Z,0.00
2018-01-17T05:20:48.795Z,0.00
2018-01-17T05:21:48.801Z,0.00
2018-01-17T05:22:48.808Z,0.00
2018-01-17T05:23:48.806Z,0.00
2018-01-17T05:24:48.810Z,0.00
2018-01-17T05:25:48.812Z,0.00
2018-01-17T05:26:48.817Z,0.00
2018-01-17T05:27:48.822Z,0.00
2018-01-17T05:28:48.825Z,0.00
2018-01-17T05:29:48.827Z,0.00
2018-01-17T05:30:48.831Z,0.00
2018-01-17T05:31:48.837Z,0.00
2018-01-17T05:32:48.841Z,0.00
2018-01-17T05:33:48.849Z,0.00
2018-01-17T05:34:48.846Z,0.00
2018-01-17T05:35:48.853Z,0.00
2018-01-17T05:36:48.865Z,0.00
2018-01-17T05:37:48.900Z,0.00
2018-01-17T05:38:48.870Z,0.00
2018-01-17T05:39:48.861Z,0.00
2018-01-17T05:40:48.861Z,0.00
2018-01-17T05:41:48.864Z,0.00
2018-01-17T05:42:48.871Z,4.00
2018-01-17T05:43:48.874Z,0.00
2018-01-17T05:44:48.874Z,0.00
2018-01-17T05:45:48.886Z,0.00
2018-01-17T05:46:48.890Z,4.00
2018-01-17T05:47:48.893Z,4.00
2018-01-17T05:48:48.897Z,0.00
2018-01-17T05:49:48.898Z,0.00
2018-01-17T05:50:48.902Z,0.00
2018-01-17T05:51:48.914Z,4.00
2018-01-17T05:52:48.911Z,0.00
2018-01-17T05:53:48.917Z,0.00
2018-01-17T05:54:48.921Z,0.00
2018-01-17T05:55:48.962Z,0.00
2018-01-17T05:56:48.927Z,0.00
2018-01-17T05:57:48.930Z,0.00
2018-01-17T05:58:48.934Z,0.00
2018-01-17T05:59:48.938Z,4.00
2018-01-17T06:00:48.944Z,0.00
2018-01-17T06:01:48.943Z,0.00
2018-01-17T06:02:48.960Z,0.00
2018-01-17T06:03:48.953Z,0.00
2018-01-17T06:04:49.490Z,4.00
2018-01-17T06:05:48.964Z,4.00
2018-01-17T06:06:48.959Z,0.00
2018-01-17T06:07:48.965Z,0.00
2018-01-17T06:08:48.998Z,0.00
2018-01-17T06:09:48.972Z,0.00
2018-01-17T06:10:48.980Z,0.00
2018-01-17T06:11:48.985Z,4.00
2018-01-17T06:12:48.984Z,0.00
2018-01-17T06:13:48.996Z,0.00
2018-01-17T06:14:48.997Z,0.00
2018-01-17T06:15:49.001Z,4.00
2018-01-17T06:16:49.001Z,0.00
2018-01-17T06:17:49.002Z,0.00
2018-01-17T06:18:49.040Z,0.00
2018-01-17T06:19:48.999Z,0.00
2018-01-17T06:20:49.068Z,0.00
2018-01-17T06:21:49.022Z,0.00
2018-01-17T06:22:49.027Z,0.00
2018-01-17T06:23:49.029Z,0.00
2018-01-17T06:24:49.035Z,0.00
2018-01-17T06:25:49.034Z,0.00
2018-01-17T06:26:49.038Z,4.00
2018-01-17T06:27:49.039Z,0.00
2018-01-17T06:28:49.046Z,4.00
2018-01-17T06:29:49.057Z,0.00
2018-01-17T06:30:49.052Z,0.00
2018-01-17T06:31:49.060Z,0.00
2018-01-17T06:32:49.100Z,0.00
2018-01-17T06:33:49.065Z,0.00
2018-01-17T06:34:49.066Z,4.00
2018-01-17T06:35:49.076Z,0.00
2018-01-17T06:36:49.073Z,0.00
2018-01-17T06:37:49.076Z,0.00
2018-01-17T06:38:49.085Z,0.00
2018-01-17T06:39:49.087Z,0.00
2018-01-17T06:40:49.098Z,0.00
2018-01-17T06:41:49.096Z,4.00
2018-01-17T06:42:49.098Z,0.00
2018-01-17T06:43:49.099Z,4.00
2018-01-17T06:44:49.105Z,4.00
2018-01-17T06:45:49.129Z,4.00
2018-01-17T06:46:49.107Z,0.00
2018-01-17T06:47:49.120Z,0.00
2018-01-17T06:48:49.117Z,0.00
2018-01-17T06:49:49.126Z,0.00
2018-01-17T06:50:49.130Z,0.00
2018-01-17T06:51:49.130Z,0.00
2018-01-17T06:52:49.129Z,4.00
2018-01-17T06:53:49.136Z,4.00
2018-01-17T06:54:49.144Z,0.00
2018-01-17T06:55:49.146Z,4.00
2018-01-17T06:56:49.158Z,4.00
2018-01-17T06:57:49.160Z,8.00
2018-01-17T06:58:49.210Z,4.00
2018-01-17T06:59:49.205Z,8.00
2018-01-17T07:00:49.180Z,8.00
2018-01-17T07:01:49.169Z,8.00
2018-01-17T07:02:49.172Z,12.00
2018-01-17T07:03:49.198Z,12.00
2018-01-17T07:04:49.183Z,12.00
2018-01-17T07:05:49.192Z,12.00
2018-01-17T07:06:49.180Z,16.00
2018-01-17T07:07:49.203Z,16.00
2018-01-17T07:08:49.195Z,20.00
2018-01-17T07:09:49.199Z,20.00
2018-01-17T07:10:49.206Z,28.00
2018-01-17T07:11:49.209Z,36.00
2018-01-17T07:12:49.219Z,44.00
2018-01-17T07:13:49.214Z,48.00
2018-01-17T07:14:49.220Z,60.00
2018-01-17T07:15:49.224Z,68.00
2018-01-17T07:16:49.232Z,72.00
2018-01-17T07:17:49.230Z,76.00
2018-01-17T07:18:49.232Z,80.00
2018-01-17T07:19:49.239Z,80.00
2018-01-17T07:20:49.240Z,84.00
2018-01-17T07:21:49.245Z,92.00
2018-01-17T07:22:49.249Z,108.00
2018-01-17T07:23:49.252Z,116.00
2018-01-17T07:24:49.262Z,124.00
2018-01-17T07:25:49.262Z,140.00
2018-01-17T07:26:49.365Z,152.00
2018-01-17T07:27:49.271Z,156.00
2018-01-17T07:28:49.277Z,160.00
2018-01-17T07:29:49.276Z,164.00
2018-01-17T07:30:49.283Z,144.00
2018-01-17T07:31:49.285Z,132.00
2018-01-17T07:32:49.287Z,132.00
2018-01-17T07:33:49.293Z,140.00
2018-01-17T07:34:49.314Z,136.00
2018-01-17T07:35:49.303Z,156.00
2018-01-17T07:36:49.303Z,220.00
2018-01-17T07:37:49.308Z,256.00
2018-01-17T07:38:49.316Z,280.00
2018-01-17T07:39:49.362Z,308.00
2018-01-17T07:40:49.317Z,360.00
2018-01-17T07:41:49.323Z,344.00
2018-01-17T07:42:49.328Z,360.00
2018-01-17T07:43:49.324Z,380.00
2018-01-17T07:44:49.333Z,384.00
2018-01-17T07:45:49.339Z,364.00
2018-01-17T07:46:49.332Z,384.00
2018-01-17T07:47:49.345Z,360.00
2018-01-17T07:48:49.345Z,316.00
2018-01-17T07:49:49.363Z,312.00
2018-01-17T07:50:49.356Z,352.00
2018-01-17T07:51:49.362Z,320.00
2018-01-17T07:52:49.368Z,328.00
2018-01-17T07:53:49.372Z,324.00
2018-01-17T07:54:49.365Z,316.00
2018-01-17T07:55:49.372Z,340.00
2018-01-17T07:56:49.386Z,336.00
2018-01-17T07:57:49.386Z,276.00
2018-01-17T07:58:49.391Z,248.00
2018-01-17T07:59:49.394Z,232.00
2018-01-17T08:00:49.396Z,224.00
2018-01-17T08:01:49.404Z,216.00
2018-01-17T08:02:49.401Z,268.00
2018-01-17T08:03:49.415Z,312.00
2018-01-17T08:04:49.412Z,332.00
2018-01-17T08:05:49.411Z,332.00
2018-01-17T08:06:49.417Z,300.00
2018-01-17T08:08:49.425Z,160.00
2018-01-17T08:09:49.440Z,140.00
2018-01-17T08:10:49.431Z,128.00
2018-01-17T08:11:49.440Z,112.00
2018-01-17T08:12:49.442Z,108.00
2018-01-17T08:13:49.444Z,112.00
2018-01-17T08:14:49.507Z,124.00
2018-01-17T08:15:49.455Z,128.00
2018-01-17T08:16:49.457Z,148.00
2018-01-17T08:17:49.453Z,180.00
2018-01-17T08:18:49.460Z,176.00
2018-01-17T08:19:49.471Z,196.00
2018-01-17T08:20:49.497Z,156.00
2018-01-17T08:21:49.478Z,148.00
2018-01-17T08:22:49.479Z,140.00
2018-01-17T08:23:49.497Z,148.00
2018-01-17T08:24:49.500Z,172.00
2018-01-17T08:25:49.500Z,204.00
2018-01-17T08:26:49.495Z,224.00
2018-01-17T08:27:49.498Z,328.00
2018-01-17T08:28:49.512Z,340.00
2018-01-17T08:29:49.518Z,276.00
2018-01-17T08:30:49.596Z,180.00
2018-01-17T08:31:49.512Z,140.00
2018-01-17T08:32:49.519Z,124.00
2018-01-17T08:33:49.518Z,120.00
2018-01-17T08:35:49.532Z,148.00
2018-01-17T08:36:49.517Z,168.00
2018-01-17T08:37:49.530Z,176.00
2018-01-17T08:38:49.542Z,196.00
2018-01-17T08:39:49.538Z,252.00
2018-01-17T08:40:49.545Z,360.00
2018-01-17T08:41:49.553Z,448.00
2018-01-17T08:42:49.552Z,488.00
2018-01-17T08:43:49.560Z,468.00
2018-01-17T08:44:49.561Z,452.00
2018-01-17T08:45:49.558Z,476.00
2018-01-17T08:47:49.568Z,588.00
2018-01-17T08:48:49.600Z,552.00
2018-01-17T08:49:49.568Z,552.00
2018-01-17T08:50:49.574Z,668.00
2018-01-17T08:51:49.577Z,872.00
2018-01-17T08:52:49.585Z,1160.00
2018-01-17T08:53:49.600Z,1360.00
2018-01-17T08:54:49.592Z,1500.00
2018-01-17T08:55:49.589Z,1632.00
2018-01-17T08:56:49.603Z,1808.00
2018-01-17T08:57:49.606Z,1920.00
2018-01-17T08:58:49.595Z,1952.00
2018-01-17T08:59:49.610Z,2108.00
2018-01-17T09:00:49.629Z,2264.00
2018-01-17T09:01:49.614Z,2452.00
2018-01-17T09:02:49.623Z,2548.00
2018-01-17T09:03:49.629Z,2588.00
2018-01-17T09:04:49.628Z,2736.00
2018-01-17T09:06:49.632Z,2800.00
2018-01-17T09:07:49.637Z,3168.00
2018-01-17T09:08:49.634Z,3364.00
2018-01-17T09:09:49.649Z,3508.00
2018-01-17T09:10:49.652Z,3500.00
2018-01-17T09:11:49.652Z,3580.00
2018-01-17T09:12:49.675Z,3716.00
2018-01-17T09:13:49.658Z,3864.00
2018-01-17T09:14:49.670Z,3860.00
2018-01-17T09:15:49.670Z,3900.00
2018-01-17T09:16:49.671Z,4060.00
2018-01-17T09:17:49.686Z,3996.00
2018-01-17T09:18:49.679Z,3836.00
2018-01-17T09:19:49.684Z,4064.00
2018-01-17T09:20:49.689Z,4532.00
2018-01-17T09:21:49.707Z,4756.00
2018-01-17T09:22:49.692Z,4908.00
2018-01-17T09:23:49.698Z,4956.00
2018-01-17T09:24:50.491Z,4960.00
2018-01-17T09:25:49.705Z,5016.00
2018-01-17T09:26:49.703Z,5184.00
2018-01-17T09:27:49.715Z,5384.00
2018-01-17T09:28:49.715Z,5500.00
2018-01-17T09:29:49.726Z,5640.00
2018-01-17T09:30:49.726Z,5644.00
2018-01-17T09:31:49.726Z,5708.00
2018-01-17T09:32:49.727Z,5848.00
2018-01-17T09:33:49.734Z,5784.00
2018-01-17T09:34:49.738Z,5780.00
2018-01-17T09:35:49.740Z,5756.00
2018-01-17T09:36:49.757Z,5708.00
2018-01-17T09:37:49.755Z,5608.00
2018-01-17T09:38:49.959Z,5516.00
2018-01-17T09:39:49.758Z,5076.00
2018-01-17T09:40:49.781Z,5852.00
2018-01-17T09:41:49.757Z,7008.00
2018-01-17T09:42:49.772Z,7696.00
2018-01-17T09:43:49.770Z,7244.00
2018-01-17T09:44:49.780Z,7696.00
2018-01-17T09:45:49.849Z,6880.00
2018-01-17T09:46:49.787Z,7708.00
2018-01-17T09:47:49.789Z,7288.00
2018-01-17T09:48:49.795Z,7660.00
2018-01-17T09:49:49.799Z,8616.00
2018-01-17T09:50:49.799Z,10332.00
2018-01-17T09:51:49.808Z,11636.00
2018-01-17T09:52:49.949Z,12532.00
2018-01-17T09:53:49.814Z,12996.00
2018-01-17T09:54:49.821Z,9292.00
2018-01-17T09:55:49.830Z,5604.00
2018-01-17T09:56:49.827Z,6612.00
2018-01-17T09:57:49.831Z,6024.00
2018-01-17T09:58:49.841Z,5228.00
2018-01-17T09:59:49.840Z,6864.00
2018-01-17T10:00:49.844Z,10260.00
2018-01-17T10:01:49.888Z,11200.00
2018-01-17T10:02:49.872Z,10544.00
2018-01-17T10:03:49.859Z,9548.00
2018-01-17T10:04:49.858Z,8492.00
2018-01-17T10:05:49.901Z,11848.00
2018-01-17T10:06:49.878Z,11720.00
2018-01-17T10:07:49.880Z,13616.00
2018-01-17T10:08:49.883Z,10804.00
2018-01-17T10:09:49.883Z,10804.00
2018-01-17T10:10:49.891Z,13992.00
2018-01-17T10:11:49.898Z,9092.00
2018-01-17T10:12:49.904Z,7104.00
2018-01-17T10:13:49.909Z,9552.00
2018-01-17T10:14:49.952Z,10644.00
2018-01-17T10:15:49.904Z,5808.00
2018-01-17T10:16:49.925Z,3836.00
2018-01-17T10:17:49.921Z,3532.00
2018-01-17T10:18:49.933Z,4400.00
2018-01-17T10:19:49.935Z,4184.00
2018-01-17T10:20:49.940Z,5008.00
2018-01-17T10:21:49.948Z,7628.00
2018-01-17T10:22:49.952Z,8832.00
2018-01-17T10:23:49.953Z,11464.00
2018-01-17T10:24:49.967Z,11104.00
2018-01-17T10:25:49.965Z,10300.00
2018-01-17T10:26:50.085Z,10472.00
2018-01-17T10:27:50.022Z,11304.00
2018-01-17T10:28:50.019Z,10824.00
2018-01-17T10:29:49.981Z,11792.00
2018-01-17T10:30:49.984Z,9640.00
2018-01-17T10:31:50.002Z,9632.00
2018-01-17T10:32:50.011Z,11348.00
2018-01-17T10:33:50.085Z,16328.00
2018-01-17T10:34:50.011Z,14864.00
2018-01-17T10:35:50.015Z,13812.00
2018-01-17T10:36:50.021Z,14480.00
2018-01-17T10:37:50.026Z,16136.00
2018-01-17T10:38:50.018Z,15636.00
2018-01-17T10:39:50.032Z,15128.00
2018-01-17T10:40:50.040Z,13500.00
2018-01-17T10:41:50.056Z,13452.00
2018-01-17T10:42:50.047Z,15904.00
2018-01-17T10:43:50.050Z,15196.00
2018-01-17T10:44:50.058Z,19968.00
2018-01-17T10:45:50.066Z,12992.00
2018-01-17T10:46:50.070Z,9584.00
2018-01-17T10:47:50.076Z,10664.00
2018-01-17T10:48:50.088Z,11832.00
2018-01-17T10:49:50.092Z,15724.00
2018-01-17T10:50:50.089Z,14484.00
2018-01-17T10:51:50.093Z,21120.00
2018-01-17T10:52:50.112Z,24224.00
2018-01-17T10:53:50.126Z,21856.00
2018-01-17T10:54:50.112Z,15880.00
2018-01-17T10:55:50.149Z,19104.00
2018-01-17T10:56:50.268Z,20512.00
2018-01-17T10:57:50.131Z,18464.00
2018-01-17T10:58:50.134Z,19936.00
2018-01-17T10:59:50.141Z,16684.00
2018-01-17T11:00:50.145Z,11780.00
2018-01-17T11:01:50.149Z,12884.00
2018-01-17T11:02:50.155Z,10296.00
2018-01-17T11:03:50.172Z,9564.00
2018-01-17T11:04:50.179Z,9804.00
2018-01-17T11:05:50.182Z,10104.00
2018-01-17T11:06:50.181Z,12868.00
2018-01-17T11:07:50.184Z,10644.00
2018-01-17T11:08:50.189Z,6012.00
2018-01-17T11:09:50.222Z,4468.00
2018-01-17T11:10:50.211Z,3884.00
2018-01-17T11:11:50.211Z,3308.00
2018-01-17T11:12:50.221Z,3380.00
2018-01-17T11:13:50.216Z,4004.00
2018-01-17T11:14:50.227Z,4224.00
2018-01-17T11:15:50.239Z,3892.00
2018-01-17T11:16:50.239Z,3708.00
2018-01-17T11:17:50.250Z,3412.00
2018-01-17T11:18:50.258Z,3168.00
2018-01-17T11:19:50.259Z,2752.00
2018-01-17T11:20:50.262Z,2944.00
2018-01-17T11:21:50.278Z,2792.00
2018-01-17T11:22:50.274Z,2520.00
2018-01-17T11:23:50.278Z,2148.00
2018-01-17T11:24:50.294Z,1576.00
2018-01-17T11:25:50.284Z,1444.00
2018-01-17T11:26:50.305Z,1544.00
2018-01-17T11:27:50.290Z,1780.00
2018-01-17T11:28:50.301Z,2516.00
2018-01-17T11:29:50.306Z,3236.00
2018-01-17T11:30:50.512Z,4056.00
2018-01-17T11:31:51.335Z,4812.00
2018-01-17T11:32:50.748Z,6492.00
2018-01-17T11:33:50.358Z,5192.00
2018-01-17T11:34:50.352Z,4632.00
2018-01-17T11:35:50.586Z,3596.00
2018-01-17T11:36:50.347Z,2992.00
2018-01-17T11:37:50.379Z,2372.00
2018-01-17T11:38:50.382Z,2640.00
2018-01-17T11:39:50.418Z,3672.00
2018-01-17T11:40:50.389Z,3732.00
2018-01-17T11:41:50.371Z,3456.00
2018-01-17T11:42:50.390Z,4220.00
2018-01-17T11:43:50.365Z,4176.00
2018-01-17T11:44:50.377Z,3676.00
2018-01-17T11:45:50.387Z,5608.00
2018-01-17T11:46:50.391Z,5480.00
2018-01-17T11:47:50.400Z,5500.00
2018-01-17T11:48:50.400Z,6160.00
2018-01-17T11:49:50.402Z,6876.00
2018-01-17T11:50:50.409Z,5368.00
2018-01-17T11:51:50.445Z,5300.00
2018-01-17T11:52:50.417Z,4240.00
2018-01-17T11:53:50.421Z,3456.00
2018-01-17T11:54:50.427Z,3040.00
2018-01-17T11:55:50.462Z,3228.00
2018-01-17T11:56:50.434Z,3884.00
2018-01-17T11:57:50.435Z,3732.00
2018-01-17T11:58:50.439Z,3160.00
2018-01-17T11:59:50.529Z,3024.00
2018-01-17T12:00:50.480Z,2860.00
2018-01-17T12:01:50.622Z,2616.00
2018-01-17T12:02:50.491Z,2356.00
2018-01-17T12:03:50.476Z,2568.00
2018-01-17T12:04:50.635Z,3200.00
2018-01-17T12:05:50.479Z,2696.00
2018-01-17T12:06:50.485Z,2460.00
2018-01-17T12:07:50.489Z,2092.00
2018-01-17T12:08:50.496Z,2036.00
2018-01-17T12:09:50.497Z,1800.00
2018-01-17T12:10:50.592Z,1924.00
2018-01-17T12:11:50.509Z,1572.00
2018-01-17T12:12:50.513Z,1456.00
2018-01-17T12:13:50.518Z,1304.00
2018-01-17T12:14:50.545Z,1312.00
2018-01-17T12:15:50.596Z,1088.00
2018-01-17T12:16:50.531Z,1032.00
2018-01-17T12:17:50.534Z,968.00
2018-01-17T12:18:50.538Z,932.00
2018-01-17T12:19:50.549Z,840.00
2018-01-17T12:20:50.550Z,756.00
2018-01-17T12:21:50.556Z,668.00
2018-01-17T12:22:50.562Z,572.00
2018-01-17T12:23:50.564Z,448.00
2018-01-17T12:24:50.564Z,436.00
2018-01-17T12:25:50.584Z,464.00
2018-01-17T12:26:50.574Z,468.00
2018-01-17T12:27:50.582Z,504.00
2018-01-17T12:28:50.596Z,560.00
2018-01-17T12:29:50.589Z,580.00
2018-01-17T12:30:50.591Z,584.00
2018-01-17T12:31:50.594Z,564.00
2018-01-17T12:32:50.603Z,576.00
2018-01-17T12:33:50.606Z,496.00
2018-01-17T12:34:50.615Z,492.00
2018-01-17T12:35:50.623Z,480.00
2018-01-17T12:36:50.622Z,536.00
2018-01-17T12:37:50.620Z,664.00
2018-01-17T12:38:50.624Z,696.00
2018-01-17T12:39:50.631Z,756.00
2018-01-17T12:40:50.631Z,824.00
2018-01-17T12:41:50.668Z,928.00
2018-01-17T12:42:50.644Z,976.00
2018-01-17T12:43:50.646Z,1316.00
2018-01-17T12:44:50.652Z,1460.00
2018-01-17T12:45:50.658Z,1040.00
2018-01-17T12:46:50.670Z,1100.00
2018-01-17T12:47:50.663Z,1212.00
2018-01-17T12:48:50.674Z,1220.00
2018-01-17T12:49:50.677Z,1456.00
2018-01-17T12:50:50.681Z,1768.00
2018-01-17T12:51:50.676Z,1888.00
2018-01-17T12:52:50.687Z,2324.00
2018-01-17T12:53:50.699Z,2336.00
2018-01-17T12:54:50.726Z,2420.00
2018-01-17T12:55:50.703Z,2496.00
2018-01-17T12:56:50.726Z,1896.00
2018-01-17T12:57:50.706Z,1476.00
2018-01-17T12:58:50.724Z,1152.00
2018-01-17T12:59:50.716Z,824.00
2018-01-17T13:00:50.724Z,720.00